Time;durP1;ratioP1;P1;durP2;ratioP2;P2;SDS_P1;SDS_P2;PMS_P1;PMS_P2;Temp;Humidity;BMP_temperature;BMP_pressure;BME280_temperature;BME280_humidity;BME280_pressure;Samples;Min_cycle;Max_cycle;Signal;HPM_P1;HPM_P2
2024/01/07 00:02:24;;;;;;;34.78;20.83;;;4.70;99.90;;;;;;4968457;28;20095;-75
2024/01/07 00:04:49;;;;;;;34.88;21.15;;;4.70;99.90;;;;;;4948767;28;20035;-74
2024/01/07 00:07:15;;;;;;;35.47;20.73;;;4.70;99.90;;;;;;4955988;28;20105;-77
2024/01/07 00:09:40;;;;;;;34.60;22.13;;;4.70;99.90;;;;;;4953670;28;20034;-74
2024/01/07 00:12:06;;;;;;;35.67;23.52;;;4.70;99.90;;;;;;4964251;28;20031;-76
2024/01/07 00:14:32;;;;;;;31.92;20.27;;;4.70;99.90;;;;;;4974997;28;20523;-82
2024/01/07 00:16:58;;;;;;;34.40;21.25;;;4.80;99.90;;;;;;4965559;28;20362;-73
2024/01/07 00:19:23;;;;;;;35.05;21.55;;;4.70;99.90;;;;;;4964345;28;20034;-81
2024/01/07 00:21:49;;;;;;;31.63;19.67;;;4.70;99.90;;;;;;4971072;28;20083;-84
2024/01/07 00:24:15;;;;;;;31.80;19.92;;;4.70;99.90;;;;;;4970450;28;20468;-86
2024/01/07 00:26:41;;;;;;;35.10;22.15;;;4.70;99.90;;;;;;4961533;28;20152;-87
2024/01/07 00:29:06;;;;;;;35.40;21.35;;;4.70;99.90;;;;;;4958691;28;20058;-84
2024/01/07 00:31:32;;;;;;;40.88;21.42;;;4.70;99.90;;;;;;4966545;28;20113;-83
2024/01/07 00:33:57;;;;;;;31.27;20.20;;;4.70;99.90;;;;;;4960112;28;20043;-84
2024/01/07 00:36:23;;;;;;;36.13;20.83;;;4.70;99.90;;;;;;4963421;28;20039;-84
2024/01/07 00:38:49;;;;;;;30.30;20.10;;;4.70;99.90;;;;;;4971172;28;20085;-85
2024/01/07 00:41:14;;;;;;;32.50;19.70;;;4.70;99.90;;;;;;4974578;28;20027;-81
2024/01/07 00:43:40;;;;;;;31.27;20.65;;;4.70;99.90;;;;;;4954055;28;20027;-84
2024/01/07 00:46:06;;;;;;;31.75;19.92;;;4.70;99.90;;;;;;4962145;28;20106;-84
2024/01/07 00:48:32;;;;;;;32.40;20.33;;;4.70;99.90;;;;;;4957200;28;20560;-85
2024/01/07 00:50:57;;;;;;;30.38;18.70;;;4.70;99.90;;;;;;4954752;28;20035;-81
2024/01/07 00:53:23;;;;;;;29.40;18.80;;;4.80;99.90;;;;;;4955044;28;20024;-84
2024/01/07 00:55:49;;;;;;;28.02;18.42;;;4.80;99.90;;;;;;4957053;28;20050;-84
2024/01/07 00:58:14;;;;;;;29.40;19.33;;;4.70;99.90;;;;;;4953896;29;20139;-83
2024/01/07 01:00:40;;;;;;;30.35;18.17;;;4.70;99.90;;;;;;4956160;28;20023;-84
2024/01/07 01:03:05;;;;;;;28.13;17.55;;;4.70;99.90;;;;;;4953677;28;20051;-83
2024/01/07 01:05:31;;;;;;;28.13;18.75;;;4.70;99.90;;;;;;4955066;28;20176;-84
2024/01/07 01:07:56;;;;;;;33.60;19.80;;;4.70;99.90;;;;;;4953812;28;20051;-74
2024/01/07 01:10:22;;;;;;;31.27;18.88;;;4.70;99.90;;;;;;4969863;28;20054;-84
2024/01/07 01:12:48;;;;;;;28.35;18.65;;;4.80;99.90;;;;;;4954673;28;20015;-86
2024/01/07 01:15:16;;;;;;;28.65;17.88;;;4.80;99.90;;;;;;4954257;28;20062;-86
2024/01/07 01:17:42;;;;;;;29.10;18.55;;;4.90;99.90;;;;;;4952439;28;20097;-84
2024/01/07 01:20:08;;;;;;;30.85;18.80;;;4.90;99.90;;;;;;4952554;29;20469;-84
2024/01/07 01:22:34;;;;;;;31.38;19.27;;;4.90;99.90;;;;;;4954342;28;20031;-84
2024/01/07 01:24:59;;;;;;;30.45;19.50;;;4.80;99.90;;;;;;4952059;29;20346;-85
2024/01/07 01:27:25;;;;;;;31.23;18.77;;;4.80;99.90;;;;;;4954538;28;20034;-83
2024/01/07 01:29:51;;;;;;;29.65;19.23;;;4.80;99.90;;;;;;4954413;28;20023;-84
2024/01/07 01:32:16;;;;;;;33.38;18.80;;;4.70;99.90;;;;;;4953563;28;20730;-84
2024/01/07 01:34:42;;;;;;;33.80;20.20;;;4.70;99.90;;;;;;4954120;28;20034;-85
2024/01/07 01:37:10;;;;;;;30.52;18.75;;;4.70;99.90;;;;;;4953633;28;20110;-81
2024/01/07 01:39:36;;;;;;;33.70;19.10;;;4.70;99.90;;;;;;4956586;28;20026;-82
2024/01/07 01:42:02;;;;;;;31.00;19.15;;;4.80;99.90;;;;;;4954716;29;20031;-84
2024/01/07 01:44:27;;;;;;;32.92;19.52;;;4.80;99.90;;;;;;4946308;28;20090;-83
2024/01/07 01:46:54;;;;;;;36.45;20.80;;;4.70;99.90;;;;;;4951834;28;20425;-74
2024/01/07 01:49:20;;;;;;;36.15;20.63;;;4.80;99.90;;;;;;4950896;28;20489;-83
2024/01/07 01:51:46;;;;;;;37.30;21.10;;;4.80;99.90;;;;;;4953472;28;20028;-84
2024/01/07 01:54:12;;;;;;;37.47;21.60;;;4.70;99.90;;;;;;4952657;28;20366;-84
2024/01/07 01:56:38;;;;;;;38.22;21.88;;;4.70;99.90;;;;;;4954096;29;20421;-84
2024/01/07 01:59:04;;;;;;;34.72;21.23;;;4.80;99.90;;;;;;4952062;28;20057;-83
2024/01/07 02:01:31;;;;;;;37.75;21.42;;;4.80;99.90;;;;;;4952059;28;20055;-85
2024/01/07 02:03:57;;;;;;;39.83;22.35;;;4.80;99.90;;;;;;4961887;28;20053;-75
2024/01/07 02:06:24;;;;;;;36.35;21.42;;;4.80;99.90;;;;;;4954589;28;20035;-84
2024/01/07 02:08:50;;;;;;;40.03;22.25;;;4.70;99.90;;;;;;4953241;28;20031;-84
2024/01/07 02:11:20;;;;;;;40.22;23.55;;;4.70;99.90;;;;;;4953650;28;20100;-85
2024/01/07 02:13:46;;;;;;;37.22;21.17;;;4.80;99.90;;;;;;4953399;28;20063;-81
2024/01/07 02:16:12;;;;;;;45.17;24.70;;;4.80;99.90;;;;;;4953028;28;20063;-85
2024/01/07 02:18:41;;;;;;;45.03;24.40;;;4.70;99.90;;;;;;4953371;28;20023;-87
2024/01/07 02:21:09;;;;;;;48.08;25.00;;;4.70;99.90;;;;;;4952294;28;20114;-86
2024/01/07 02:23:34;;;;;;;44.72;25.35;;;4.70;99.90;;;;;;4952907;28;20035;-84
2024/01/07 02:26:00;;;;;;;45.20;23.58;;;4.70;99.90;;;;;;4952378;28;20035;-85
2024/01/07 02:28:25;;;;;;;42.90;24.17;;;4.80;99.90;;;;;;4952848;28;20027;-84
2024/01/07 02:30:51;;;;;;;44.35;24.13;;;4.70;99.90;;;;;;4953641;28;20039;-79
2024/01/07 02:33:16;;;;;;;46.05;24.83;;;4.70;99.90;;;;;;4951913;28;20039;-82
2024/01/07 02:35:42;;;;;;;38.50;23.42;;;4.60;99.90;;;;;;4953111;28;20031;-85
2024/01/07 02:38:08;;;;;;;44.83;23.88;;;4.60;99.90;;;;;;4951603;28;20062;-86
2024/01/07 02:40:33;;;;;;;48.30;24.95;;;4.50;99.90;;;;;;4953411;28;20038;-85
2024/01/07 02:42:59;;;;;;;44.70;24.90;;;4.50;99.90;;;;;;4951973;28;20134;-85
2024/01/07 02:45:24;;;;;;;47.20;24.95;;;4.50;99.90;;;;;;4953188;28;20027;-84
2024/01/07 02:47:50;;;;;;;44.50;24.35;;;4.50;99.90;;;;;;4952881;28;20035;-84
2024/01/07 02:50:16;;;;;;;44.00;23.92;;;4.60;99.90;;;;;;4951909;28;20170;-84
2024/01/07 02:52:42;;;;;;;44.35;25.27;;;4.70;99.90;;;;;;4952781;28;20475;-86
2024/01/07 02:55:08;;;;;;;43.03;24.20;;;4.70;99.90;;;;;;4952155;28;20031;-85
2024/01/07 02:57:34;;;;;;;42.10;23.42;;;4.70;99.90;;;;;;4941623;29;20058;-84
2024/01/07 03:00:00;;;;;;;46.35;24.60;;;4.70;99.90;;;;;;4952444;28;20491;-85
2024/01/07 03:02:25;;;;;;;45.63;24.95;;;4.60;99.90;;;;;;4954861;28;20063;-86
2024/01/07 03:04:51;;;;;;;45.88;24.65;;;4.60;99.90;;;;;;4968940;28;20042;-85
2024/01/07 03:07:17;;;;;;;40.80;25.08;;;4.60;99.90;;;;;;4971540;28;20026;-85
2024/01/07 03:09:43;;;;;;;47.63;24.45;;;4.70;99.90;;;;;;4959210;28;20032;-86
2024/01/07 03:12:08;;;;;;;39.97;24.67;;;4.70;99.90;;;;;;4960617;28;20023;-86
2024/01/07 03:14:34;;;;;;;44.40;23.40;;;4.60;99.90;;;;;;4953207;28;20027;-86
2024/01/07 03:16:59;;;;;;;37.78;23.48;;;4.70;99.90;;;;;;4953655;28;20357;-81
2024/01/07 03:19:25;;;;;;;38.75;23.27;;;4.70;99.90;;;;;;4956754;28;20089;-85
2024/01/07 03:21:50;;;;;;;39.40;24.00;;;4.70;99.90;;;;;;4963705;28;20096;-85
2024/01/07 03:24:16;;;;;;;39.28;23.38;;;4.70;99.90;;;;;;4965642;28;20135;-85
2024/01/07 03:26:42;;;;;;;41.63;23.02;;;4.70;99.90;;;;;;4957304;28;20046;-85
2024/01/07 03:29:07;;;;;;;38.85;21.80;;;4.70;99.90;;;;;;4958887;28;20508;-85
2024/01/07 03:31:33;;;;;;;35.78;22.67;;;4.70;99.90;;;;;;4964098;28;20031;-85
2024/01/07 03:33:59;;;;;;;39.28;21.95;;;4.80;99.90;;;;;;4956423;28;20082;-84
2024/01/07 03:36:24;;;;;;;37.50;22.73;;;4.70;99.90;;;;;;4959536;28;20375;-85
2024/01/07 03:38:50;;;;;;;36.78;21.48;;;4.70;99.90;;;;;;4968290;28;20476;-85
2024/01/07 03:41:19;;;;;;;37.78;20.55;;;4.70;99.90;;;;;;4959078;28;20038;-85
2024/01/07 03:43:46;;;;;;;34.07;20.60;;;4.70;99.90;;;;;;4960588;28;20058;-81
2024/01/07 03:46:12;;;;;;;34.38;20.63;;;4.60;99.90;;;;;;4960264;28;20049;-85
2024/01/07 03:48:37;;;;;;;34.50;20.52;;;4.70;99.90;;;;;;4968907;28;20109;-84
2024/01/07 03:51:03;;;;;;;41.38;20.05;;;4.70;99.90;;;;;;4960531;28;20166;-85
2024/01/07 03:53:28;;;;;;;31.13;19.80;;;4.70;99.90;;;;;;4962590;28;20034;-83
2024/01/07 03:55:54;;;;;;;32.63;20.08;;;4.60;99.90;;;;;;4964886;28;20027;-74
2024/01/07 03:58:20;;;;;;;37.17;21.27;;;4.60;99.90;;;;;;4965862;28;20027;-81
2024/01/07 04:00:45;;;;;;;32.58;20.25;;;4.60;99.90;;;;;;4935482;29;20027;-84
2024/01/07 04:03:11;;;;;;;34.92;20.92;;;4.60;99.90;;;;;;4961852;28;20430;-83
2024/01/07 04:05:37;;;;;;;33.47;21.25;;;4.50;99.90;;;;;;4967993;28;20035;-84
2024/01/07 04:08:03;;;;;;;33.35;20.52;;;4.40;99.90;;;;;;4960939;28;20030;-85
2024/01/07 04:10:29;;;;;;;37.88;21.55;;;4.40;99.90;;;;;;4955084;28;20377;-84
2024/01/07 04:12:54;;;;;;;31.48;18.90;;;4.50;99.90;;;;;;4965528;28;20031;-75
2024/01/07 04:15:20;;;;;;;33.15;20.05;;;4.50;99.90;;;;;;4969731;28;20421;-84
2024/01/07 04:17:46;;;;;;;36.92;18.63;;;4.50;99.90;;;;;;4956157;28;20357;-83
2024/01/07 04:20:15;;;;;;;32.33;18.33;;;4.50;99.90;;;;;;4959715;28;20046;-83
2024/01/07 04:22:40;;;;;;;32.53;19.13;;;4.60;99.90;;;;;;4968430;28;20050;-84
2024/01/07 04:25:08;;;;;;;30.13;18.83;;;4.60;99.90;;;;;;4959277;28;20559;-85
2024/01/07 04:27:37;;;;;;;29.17;18.73;;;4.60;99.90;;;;;;4961380;28;20396;-85
2024/01/07 04:30:04;;;;;;;31.95;19.75;;;4.60;99.90;;;;;;4952409;28;20082;-84
2024/01/07 04:32:30;;;;;;;33.15;19.30;;;4.60;99.90;;;;;;4964691;28;20043;-84
2024/01/07 04:34:57;;;;;;;32.47;20.02;;;4.50;99.90;;;;;;4953589;28;20400;-73
2024/01/07 04:37:23;;;;;;;34.53;19.40;;;4.50;99.90;;;;;;4958530;28;20146;-83
2024/01/07 04:39:48;;;;;;;33.88;20.80;;;4.50;99.90;;;;;;4967364;28;20427;-84
2024/01/07 04:42:14;;;;;;;33.20;18.88;;;4.50;99.90;;;;;;4950553;28;20589;-86
2024/01/07 04:44:39;;;;;;;32.30;20.50;;;4.50;99.90;;;;;;4957859;28;20102;-85
2024/01/07 04:47:22;;;;;;;36.70;20.48;;;4.50;99.90;;;;;;4970099;28;20023;-81
2024/01/07 04:49:47;;;;;;;35.65;20.52;;;4.40;99.90;;;;;;4969714;28;20114;-85
2024/01/07 04:52:13;;;;;;;31.52;19.08;;;4.30;99.90;;;;;;4955570;28;20194;-84
2024/01/07 04:54:38;;;;;;;35.05;20.08;;;4.30;99.90;;;;;;4961586;28;20031;-85
2024/01/07 04:57:04;;;;;;;35.58;19.88;;;4.20;99.90;;;;;;4961867;28;20370;-75
2024/01/07 04:59:30;;;;;;;35.55;20.83;;;4.30;99.90;;;;;;4955355;28;20027;-76
2024/01/07 05:01:56;;;;;;;35.40;19.70;;;4.30;99.90;;;;;;4960848;28;20055;-71
2024/01/07 05:04:21;;;;;;;35.17;19.50;;;4.30;99.90;;;;;;4955259;28;20070;-76
2024/01/07 05:06:47;;;;;;;33.95;19.00;;;4.30;99.90;;;;;;4974016;28;20054;-78
2024/01/07 05:09:12;;;;;;;33.83;18.83;;;4.30;99.90;;;;;;4963505;28;20887;-77
2024/01/07 05:11:41;;;;;;;35.72;19.25;;;4.30;99.90;;;;;;4963845;28;20035;-78
2024/01/07 05:14:06;;;;;;;32.65;18.17;;;4.20;99.90;;;;;;4966830;28;20472;-77
2024/01/07 05:16:32;;;;;;;33.35;18.27;;;4.20;99.90;;;;;;4956422;28;20031;-79
2024/01/07 05:18:57;;;;;;;37.00;17.20;;;4.30;99.90;;;;;;4956652;28;20465;-73
2024/01/07 05:21:23;;;;;;;30.08;17.58;;;4.30;99.90;;;;;;4969653;28;20035;-80
2024/01/07 05:23:48;;;;;;;31.33;18.10;;;4.20;99.90;;;;;;4973336;28;20166;-81
2024/01/07 05:26:14;;;;;;;28.48;16.67;;;4.20;99.90;;;;;;4964320;28;20030;-78
2024/01/07 05:28:40;;;;;;;30.17;16.23;;;4.20;99.90;;;;;;4967317;28;20115;-78
2024/01/07 05:31:17;;;;;;;31.10;16.77;;;4.20;99.90;;;;;;4972296;28;20042;-82
2024/01/07 05:33:45;;;;;;;27.70;16.25;;;4.20;99.90;;;;;;4975147;28;20178;-77
2024/01/07 05:36:14;;;;;;;34.35;16.02;;;4.30;99.90;;;;;;4951619;28;20098;-77
2024/01/07 05:38:42;;;;;;;29.90;16.13;;;4.20;99.90;;;;;;4969450;28;20031;-76
2024/01/07 05:41:07;;;;;;;25.88;15.93;;;4.20;99.90;;;;;;4962297;28;20487;-75
2024/01/07 05:43:33;;;;;;;28.58;15.57;;;4.20;99.90;;;;;;4962054;28;20234;-76
2024/01/07 05:45:58;;;;;;;25.17;14.63;;;4.20;99.90;;;;;;4964528;28;20401;-74
2024/01/07 05:48:24;;;;;;;29.80;16.65;;;4.20;99.90;;;;;;4954519;28;20170;-84
2024/01/07 05:50:51;;;;;;;24.92;15.18;;;4.20;99.90;;;;;;4959007;28;20027;-85
2024/01/07 05:53:18;;;;;;;26.02;15.13;;;4.30;99.90;;;;;;4959282;28;20649;-85
2024/01/07 05:55:43;;;;;;;28.33;14.68;;;4.20;99.90;;;;;;4969633;28;20031;-83
2024/01/07 05:58:09;;;;;;;28.75;15.20;;;4.30;99.90;;;;;;4967371;28;20139;-78
2024/01/07 06:00:34;;;;;;;25.00;14.93;;;4.30;99.90;;;;;;4954369;29;20032;-76
2024/01/07 06:03:00;;;;;;;26.10;14.95;;;4.30;99.90;;;;;;4965695;28;20054;-75
2024/01/07 06:05:26;;;;;;;28.45;15.45;;;4.30;99.90;;;;;;4971289;28;20464;-76
2024/01/07 06:07:52;;;;;;;28.23;15.52;;;4.30;99.90;;;;;;4958848;28;20062;-75
2024/01/07 06:10:17;;;;;;;23.13;14.45;;;4.20;99.90;;;;;;4957900;28;20027;-78
2024/01/07 06:12:43;;;;;;;26.38;14.45;;;4.20;99.90;;;;;;4968896;28;20026;-77
2024/01/07 06:15:09;;;;;;;25.23;14.85;;;4.20;99.90;;;;;;4944034;29;20102;-76
2024/01/07 06:17:34;;;;;;;26.88;15.02;;;4.30;99.90;;;;;;4958955;28;20106;-73
2024/01/07 06:20:00;;;;;;;29.73;15.52;;;4.30;99.90;;;;;;4962800;28;20085;-75
2024/01/07 06:22:26;;;;;;;26.02;14.75;;;4.20;99.90;;;;;;4970365;28;20070;-76
2024/01/07 06:24:51;;;;;;;25.50;14.32;;;4.20;99.90;;;;;;4957574;28;20036;-73
2024/01/07 06:27:17;;;;;;;28.23;15.40;;;4.20;99.90;;;;;;4957483;28;20102;-84
2024/01/07 06:29:42;;;;;;;25.23;14.27;;;4.30;99.90;;;;;;4957619;28;20380;-85
2024/01/07 06:32:09;;;;;;;23.58;14.95;;;4.30;99.90;;;;;;4966518;28;20046;-86
2024/01/07 06:34:35;;;;;;;25.92;15.23;;;4.30;99.90;;;;;;4957141;28;20472;-86
2024/01/07 06:37:01;;;;;;;25.95;15.88;;;4.20;99.90;;;;;;4963385;28;20041;-82
2024/01/07 06:39:26;;;;;;;21.08;14.15;;;4.20;99.90;;;;;;4969555;28;20115;-82
2024/01/07 06:41:52;;;;;;;24.17;15.85;;;4.20;99.90;;;;;;4950276;28;20030;-85
2024/01/07 06:44:18;;;;;;;23.55;14.95;;;4.20;99.90;;;;;;4958738;28;20050;-86
2024/01/07 06:46:44;;;;;;;23.83;15.50;;;4.20;99.90;;;;;;4966956;28;20026;-84
2024/01/07 06:49:09;;;;;;;24.63;14.82;;;4.20;99.90;;;;;;4970756;28;20380;-84
2024/01/07 06:51:35;;;;;;;24.65;15.10;;;4.20;99.90;;;;;;4958490;28;20032;-79
2024/01/07 06:54:01;;;;;;;23.73;14.52;;;4.20;99.90;;;;;;4960440;28;20089;-82
2024/01/07 06:56:26;;;;;;;23.77;14.80;;;4.20;99.90;;;;;;4968601;28;20384;-83
2024/01/07 06:58:52;;;;;;;21.42;13.65;;;4.20;99.90;;;;;;4954817;28;20031;-84
2024/01/07 07:01:20;;;;;;;22.08;14.02;;;4.20;99.90;;;;;;4956353;28;20289;-83
2024/01/07 07:03:46;;;;;;;24.80;13.57;;;4.20;99.90;;;;;;4948343;28;20137;-83
2024/01/07 07:06:12;;;;;;;21.20;13.63;;;4.20;99.90;;;;;;4965921;28;20153;-85
2024/01/07 07:08:38;;;;;;;20.80;13.18;;;4.20;99.90;;;;;;4955993;28;20062;-80
2024/01/07 07:11:03;;;;;;;23.42;13.65;;;4.20;99.90;;;;;;4959678;28;20097;-84
2024/01/07 07:13:29;;;;;;;21.83;13.00;;;4.20;99.90;;;;;;4968374;28;20384;-80
2024/01/07 07:15:55;;;;;;;18.98;12.50;;;4.10;99.90;;;;;;4948228;28;20034;-73
2024/01/07 07:18:20;;;;;;;19.08;12.02;;;4.10;99.90;;;;;;4954043;28;20551;-83
2024/01/07 07:20:46;;;;;;;18.08;11.27;;;4.10;99.90;;;;;;4962807;28;20113;-83
2024/01/07 07:23:11;;;;;;;25.10;13.77;;;4.00;99.90;;;;;;4969176;28;20035;-83
2024/01/07 07:25:37;;;;;;;17.85;11.30;;;4.00;99.90;;;;;;4960803;28;20388;-85
2024/01/07 07:28:03;;;;;;;20.27;12.48;;;4.00;99.90;;;;;;4960610;28;20062;-84
2024/01/07 07:30:29;;;;;;;17.35;11.43;;;3.90;99.90;;;;;;4956726;28;20476;-82
2024/01/07 07:32:55;;;;;;;16.75;11.18;;;3.80;99.90;;;;;;4953096;28;20031;-73
2024/01/07 07:35:21;;;;;;;16.75;10.73;;;3.90;99.90;;;;;;4942912;28;20356;-83
2024/01/07 07:37:47;;;;;;;13.63;9.55;;;3.80;99.90;;;;;;4965289;28;20074;-83
2024/01/07 07:40:12;;;;;;;16.92;10.27;;;3.80;99.90;;;;;;4965143;28;20054;-84
2024/01/07 07:42:38;;;;;;;15.80;9.50;;;3.80;99.90;;;;;;4955357;28;20027;-85
2024/01/07 07:45:05;;;;;;;14.50;9.82;;;3.70;99.90;;;;;;4961119;28;20106;-81
2024/01/07 07:47:31;;;;;;;15.10;9.63;;;3.60;99.90;;;;;;4967213;28;20033;-83
2024/01/07 07:49:56;;;;;;;17.30;9.82;;;3.80;99.90;;;;;;4944443;28;20031;-74
2024/01/07 07:52:25;;;;;;;16.92;9.63;;;;;;;;;;4953925;28;20396;-85
2024/01/07 07:54:51;;;;;;;16.27;9.07;;;;;;;;;;4964505;28;20402;-84
2024/01/07 07:57:19;;;;;;;15.23;9.18;;;;;;;;;;4962093;28;20027;-88
2024/01/07 07:59:48;;;;;;;16.33;9.77;;;;;;;;;;4953452;28;20344;-83
2024/01/07 08:02:17;;;;;;;14.70;9.18;;;;;;;;;;4952862;28;20062;-77
2024/01/07 08:04:45;;;;;;;14.85;9.27;;;;;;;;;;4951887;28;20477;-75
2024/01/07 08:07:13;;;;;;;15.55;9.65;;;;;;;;;;4950667;28;20031;-78
2024/01/07 08:09:41;;;;;;;14.75;9.95;;;;;;;;;;4951712;28;20388;-76
2024/01/07 08:12:07;;;;;;;16.38;9.55;;;3.40;99.90;;;;;;4951182;29;20457;-75
2024/01/07 08:14:33;;;;;;;16.00;9.05;;;3.50;99.90;;;;;;4964160;28;20122;-78
2024/01/07 08:16:59;;;;;;;13.52;9.13;;;3.50;99.90;;;;;;4951486;28;20031;-72
2024/01/07 08:19:25;;;;;;;12.85;8.15;;;3.60;99.90;;;;;;4951665;28;20028;-79
2024/01/07 08:21:50;;;;;;;15.35;8.85;;;3.60;99.90;;;;;;4952854;28;20043;-78
2024/01/07 08:24:16;;;;;;;13.10;8.60;;;3.50;99.90;;;;;;4946086;28;20189;-75
2024/01/07 08:26:41;;;;;;;12.45;7.65;;;3.60;99.90;;;;;;4954394;28;20019;-76
2024/01/07 08:29:07;;;;;;;12.32;7.63;;;3.60;99.90;;;;;;4951047;28;20028;-76
2024/01/07 08:31:33;;;;;;;13.80;7.90;;;3.60;99.90;;;;;;4951442;28;20094;-81
2024/01/07 08:33:59;;;;;;;12.73;7.97;;;3.60;99.90;;;;;;4953459;28;20070;-75
2024/01/07 08:36:25;;;;;;;13.13;8.32;;;3.60;99.90;;;;;;4954612;28;20114;-76
2024/01/07 08:38:50;;;;;;;13.23;8.50;;;3.60;99.90;;;;;;4953845;28;20125;-75
2024/01/07 08:41:16;;;;;;;13.32;8.13;;;3.60;99.90;;;;;;4961964;28;20023;-75
2024/01/07 08:43:42;;;;;;;15.70;8.15;;;3.60;99.90;;;;;;4965495;28;20042;-79
2024/01/07 08:46:07;;;;;;;15.55;8.15;;;3.60;99.90;;;;;;4958106;28;20098;-77
2024/01/07 08:48:33;;;;;;;13.38;8.00;;;3.50;99.90;;;;;;4954045;28;20357;-78
2024/01/07 08:50:59;;;;;;;13.82;8.43;;;3.50;99.90;;;;;;4954140;29;20098;-79
2024/01/07 08:53:24;;;;;;;14.25;9.45;;;3.50;99.90;;;;;;4961695;28;20087;-77
2024/01/07 08:55:50;;;;;;;15.10;8.85;;;3.50;99.90;;;;;;4960035;28;20504;-77
2024/01/07 08:58:17;;;;;;;14.65;8.32;;;3.50;99.90;;;;;;4952898;28;20115;-78
2024/01/07 09:00:43;;;;;;;16.08;9.60;;;3.50;99.90;;;;;;4954523;28;20043;-81
2024/01/07 09:03:09;;;;;;;14.38;9.57;;;3.50;99.90;;;;;;4954733;28;20567;-79
2024/01/07 09:05:34;;;;;;;12.38;8.43;;;3.40;99.90;;;;;;4959290;28;20039;-80
2024/01/07 09:08:00;;;;;;;13.70;7.40;;;3.40;99.90;;;;;;4953888;28;20032;-76
2024/01/07 09:10:26;;;;;;;14.38;9.18;;;3.40;99.90;;;;;;4953640;28;20035;-75
2024/01/07 09:12:53;;;;;;;12.55;8.07;;;3.40;99.90;;;;;;4954075;28;20110;-76
2024/01/07 09:15:20;;;;;;;10.73;6.63;;;3.40;99.90;;;;;;4958853;28;20062;-72
2024/01/07 09:17:46;;;;;;;12.63;7.00;;;3.40;99.90;;;;;;4955133;28;20538;-76
2024/01/07 09:20:12;;;;;;;9.43;5.65;;;3.40;99.90;;;;;;4954527;28;20539;-75
2024/01/07 09:22:38;;;;;;;9.98;5.72;;;3.40;99.90;;;;;;4952987;28;20110;-73
2024/01/07 09:25:05;;;;;;;11.02;6.03;;;3.50;99.90;;;;;;4953318;28;20033;-76
2024/01/07 09:27:31;;;;;;;9.43;5.00;;;3.50;99.90;;;;;;4953740;28;20028;-80
2024/01/07 09:29:56;;;;;;;8.65;5.22;;;3.50;99.90;;;;;;4953095;28;20038;-76
2024/01/07 09:32:22;;;;;;;6.88;4.82;;;3.50;99.90;;;;;;4952502;28;20114;-80
2024/01/07 09:34:47;;;;;;;10.05;5.88;;;3.50;99.90;;;;;;4954094;28;20030;-76
2024/01/07 09:37:13;;;;;;;8.48;4.95;;;3.50;99.90;;;;;;4953246;28;20067;-81
2024/01/07 09:39:42;;;;;;;7.97;4.65;;;3.50;99.90;;;;;;4952558;28;20071;-75
2024/01/07 09:42:16;;;;;;;9.52;5.55;;;3.50;99.90;;;;;;4959628;28;20047;-77
2024/01/07 09:44:43;;;;;;;9.63;5.50;;;3.50;99.90;;;;;;4953195;28;20035;-79
2024/01/07 09:47:13;;;;;;;10.38;6.25;;;3.50;99.90;;;;;;4952078;28;20043;-76
2024/01/07 09:49:39;;;;;;;6.75;4.82;;;3.60;99.90;;;;;;4951424;28;20412;-79
2024/01/07 09:52:07;;;;;;;10.73;5.40;;;3.60;99.90;;;;;;4952265;28;20084;-75
2024/01/07 09:54:34;;;;;;;7.13;5.07;;;3.50;99.90;;;;;;4952574;28;20034;-73
2024/01/07 09:57:06;;;;;;;9.50;6.05;;;3.60;99.90;;;;;;4952281;28;20023;-76
2024/01/07 09:59:32;;;;;;;7.97;5.20;;;3.50;99.90;;;;;;4952697;28;20031;-77
2024/01/07 10:01:57;;;;;;;6.40;4.28;;;3.60;99.90;;;;;;4953521;28;20047;-71
2024/01/07 10:04:24;;;;;;;6.40;4.68;;;3.60;99.90;;;;;;4959586;28;20118;-76
2024/01/07 10:06:50;;;;;;;4.15;3.70;;;3.60;99.90;;;;;;4965293;28;20559;-80
2024/01/07 10:09:17;;;;;;;7.65;5.10;;;3.60;99.90;;;;;;4955425;28;20039;-77
2024/01/07 10:11:43;;;;;;;9.88;5.47;;;3.60;99.90;;;;;;4952701;28;20035;-75
2024/01/07 10:14:09;;;;;;;7.82;5.28;;;3.50;99.90;;;;;;4952990;28;20121;-77
2024/01/07 10:16:35;;;;;;;7.72;5.22;;;3.60;99.90;;;;;;4952943;28;20110;-74
2024/01/07 10:19:01;;;;;;;8.52;5.72;;;3.60;99.90;;;;;;4951575;28;20041;-73
2024/01/07 10:21:26;;;;;;;16.27;6.05;;;3.60;99.90;;;;;;4952557;28;20031;-77
2024/01/07 10:24:11;;;;;;;8.13;4.82;;;3.60;99.90;;;;;;4952064;28;20536;-76
2024/01/07 10:26:38;;;;;;;8.98;5.88;;;3.50;99.90;;;;;;4951255;28;20031;-74
2024/01/07 10:29:04;;;;;;;8.10;5.22;;;3.50;99.90;;;;;;4952231;28;20107;-76
2024/01/07 10:31:31;;;;;;;9.05;5.43;;;3.40;99.90;;;;;;4952654;28;20135;-74
2024/01/07 10:33:57;;;;;;;8.10;5.40;;;3.50;99.90;;;;;;4951725;28;20031;-75
2024/01/07 10:36:24;;;;;;;8.77;5.68;;;3.40;99.90;;;;;;4953713;28;20872;-77
2024/01/07 10:38:50;;;;;;;8.15;5.53;;;3.40;99.90;;;;;;4952367;28;20054;-78
2024/01/07 10:41:19;;;;;;;10.57;6.35;;;3.40;99.90;;;;;;4952283;29;20511;-75
2024/01/07 10:43:48;;;;;;;9.38;6.00;;;3.40;99.90;;;;;;4954181;28;20058;-75
2024/01/07 10:46:15;;;;;;;11.23;6.72;;;;;;;;;;4952488;28;20449;-74
2024/01/07 10:48:54;;;;;;;9.60;6.32;;;3.10;99.90;;;;;;4941755;28;20023;-75
2024/01/07 10:51:21;;;;;;;8.70;6.38;;;3.30;99.90;;;;;;4953940;28;20417;-72
2024/01/07 10:53:53;;;;;;;11.57;7.25;;;3.10;99.90;;;;;;4955993;28;20457;-76
2024/01/07 10:56:24;;;;;;;11.20;7.25;;;3.00;99.90;;;;;;4954272;28;20500;-72
2024/01/07 10:58:53;;;;;;;10.48;6.47;;;2.90;99.90;;;;;;4952206;29;20031;-79
2024/01/07 11:01:20;;;;;;;8.50;6.18;;;3.00;99.90;;;;;;4952675;28;20046;-76
2024/01/07 11:03:51;;;;;;;11.88;6.80;;;3.00;99.90;;;;;;4951774;28;20047;-81
2024/01/07 11:06:26;;;;;;;13.63;7.13;;;3.00;99.90;;;;;;4951481;28;20039;-74
2024/01/07 11:09:14;;;;;;;12.38;6.95;;;3.10;99.90;;;;;;4951642;28;20020;-78
2024/01/07 11:11:43;;;;;;;11.77;7.15;;;3.10;99.90;;;;;;4951487;28;20102;-74
2024/01/07 11:14:34;;;;;;;10.48;7.20;;;3.00;99.90;;;;;;4950568;28;20390;-76
2024/01/07 11:17:00;;;;;;;10.48;7.20;;;3.00;99.90;;;;;;4948135;28;20042;-75
2024/01/07 11:19:26;;;;;;;9.38;6.47;;;3.00;99.90;;;;;;4957565;28;20074;-77
2024/01/07 11:21:52;;;;;;;12.93;6.93;;;3.00;99.90;;;;;;4953919;28;20046;-74
2024/01/07 11:24:42;;;;;;;11.85;6.55;;;2.90;99.90;;;;;;4951156;28;20027;-75
2024/01/07 11:27:11;;;;;;;9.77;6.65;;;3.00;99.90;;;;;;4948618;28;20130;-77
2024/01/07 11:29:36;;;;;;;9.93;6.78;;;3.00;99.90;;;;;;4951762;28;20030;-76
2024/01/07 11:32:02;;;;;;;10.45;6.90;;;3.00;99.90;;;;;;4950942;28;20035;-77
2024/01/07 11:34:46;;;;;;;9.25;6.57;;;3.00;99.90;;;;;;4952128;28;20481;-77
2024/01/07 11:37:13;;;;;;;9.23;6.43;;;3.00;99.90;;;;;;4951009;28;20479;-74
2024/01/07 11:39:41;;;;;;;8.98;6.18;;;3.00;99.90;;;;;;4951272;28;20031;-75
2024/01/07 11:42:07;;;;;;;7.85;5.82;;;3.00;99.90;;;;;;4951013;28;20369;-74
2024/01/07 11:44:38;;;;;;;10.10;5.60;;;2.90;99.90;;;;;;4956551;28;20049;-74
2024/01/07 11:47:05;;;;;;;8.50;5.20;;;2.90;99.90;;;;;;4942281;28;20039;-80
2024/01/07 11:49:32;;;;;;;8.13;5.55;;;2.90;99.90;;;;;;4951412;28;20039;-77
2024/01/07 11:51:58;;;;;;;8.85;6.15;;;2.80;99.90;;;;;;4950353;28;20063;-74
2024/01/07 11:54:24;;;;;;;8.75;5.85;;;2.80;99.90;;;;;;4952085;28;20062;-76
2024/01/07 11:56:49;;;;;;;9.80;6.35;;;2.80;99.90;;;;;;4950770;29;20035;-75
2024/01/07 11:59:15;;;;;;;9.63;6.50;;;2.80;99.90;;;;;;4952211;28;20512;-73
2024/01/07 12:01:40;;;;;;;8.65;6.05;;;2.80;99.90;;;;;;4953072;28;20034;-77
2024/01/07 12:04:07;;;;;;;8.32;6.22;;;2.80;99.90;;;;;;4949677;28;20041;-77
2024/01/07 12:06:33;;;;;;;10.40;6.68;;;2.80;99.90;;;;;;4952186;28;20067;-74
2024/01/07 12:08:59;;;;;;;9.35;6.53;;;2.80;99.90;;;;;;4956673;28;20440;-74
2024/01/07 12:11:24;;;;;;;11.27;7.25;;;2.80;99.90;;;;;;4961877;28;20027;-71
2024/01/07 12:13:50;;;;;;;9.82;6.57;;;2.70;99.90;;;;;;4946005;28;20113;-77
2024/01/07 12:16:16;;;;;;;10.02;6.72;;;2.70;99.90;;;;;;4957257;28;20027;-74
2024/01/07 12:18:42;;;;;;;11.32;7.57;;;2.70;99.90;;;;;;4957649;28;20062;-74
2024/01/07 12:21:08;;;;;;;10.68;7.30;;;2.60;99.90;;;;;;4969389;28;20082;-74
2024/01/07 12:23:37;;;;;;;10.82;7.30;;;2.60;99.90;;;;;;4969239;28;20024;-77
2024/01/07 12:26:10;;;;;;;11.15;7.20;;;2.50;99.90;;;;;;4958263;28;20085;-76
2024/01/07 12:28:36;;;;;;;14.63;7.90;;;2.50;99.90;;;;;;4962693;28;20039;-76
2024/01/07 12:31:04;;;;;;;11.35;7.28;;;2.50;99.90;;;;;;4964070;28;20031;-75
2024/01/07 12:33:31;;;;;;;11.13;7.20;;;2.50;99.90;;;;;;4964740;28;20054;-75
2024/01/07 12:36:00;;;;;;;12.82;7.55;;;2.50;99.90;;;;;;4964893;28;20038;-71
2024/01/07 12:38:26;;;;;;;15.13;8.02;;;2.60;99.90;;;;;;4956896;28;20032;-76
2024/01/07 12:40:53;;;;;;;12.07;7.55;;;2.60;99.90;;;;;;4975585;28;20045;-73
2024/01/07 12:43:20;;;;;;;13.10;7.68;;;2.60;99.90;;;;;;4961182;28;20049;-72